Durham, Oklahoma
Current Conditions -  °F | °C
As of 1:35 PM on Friday 31 Oct 2014 (Local Time) from KHHF Reporting Station
Clear Clear  
Wind Chill: 55°   Ceiling: Unl
Heat Index: 55°   Visibility: NA
Dew Point: 29°   Wind: 7mph
Humidity: 38%   Direction: 40°NE
Pressure: 30.44"   Gusts: NA
Location:  35.84°N, 99.92°W
Report Text: KHHF 311835Z AUTO 04006KT CLR 13/M01 A3044 RMK AO2 T01281014 PWINO
Loading
Personal Weather Stations






























Interactive Weather Map
Tropical Storm Tracking
New forecast layout! Learn more

10-Day Weather Forecast

Advertisements
Track Severe Weather on mobile